sensor_id;sensor_type;location;lat;lon;timestamp;temperature;humidity
262;DHT22;114;48.260;10.988;2024-01-16T00:01:45;-2.80;1.00
262;DHT22;114;48.260;10.988;2024-01-16T00:04:12;-2.20;1.00
262;DHT22;114;48.260;10.988;2024-01-16T00:06:41;-2.40;1.00
262;DHT22;114;48.260;10.988;2024-01-16T00:09:08;-3.00;1.00
262;DHT22;114;48.260;10.988;2024-01-16T00:11:40;-2.50;1.00
262;DHT22;114;48.260;10.988;2024-01-16T00:14:06;-2.30;1.00
262;DHT22;114;48.260;10.988;2024-01-16T00:16:32;-2.90;1.00
262;DHT22;114;48.260;10.988;2024-01-16T00:18:58;-3.00;1.00
262;DHT22;114;48.260;10.988;2024-01-16T00:21:24;-2.70;1.00
262;DHT22;114;48.260;10.988;2024-01-16T00:23:50;-2.90;1.00
262;DHT22;114;48.260;10.988;2024-01-16T00:26:22;-3.00;1.00
262;DHT22;114;48.260;10.988;2024-01-16T00:28:48;-3.50;1.00
262;DHT22;114;48.260;10.988;2024-01-16T00:31:14;-3.50;1.00
262;DHT22;114;48.260;10.988;2024-01-16T00:33:39;-3.60;1.00
262;DHT22;114;48.260;10.988;2024-01-16T00:36:05;-3.20;1.00
262;DHT22;114;48.260;10.988;2024-01-16T00:38:34;-3.60;1.00
262;DHT22;114;48.260;10.988;2024-01-16T00:41:00;-3.80;1.00
262;DHT22;114;48.260;10.988;2024-01-16T00:43:27;-4.00;1.00
262;DHT22;114;48.260;10.988;2024-01-16T00:45:52;-4.30;1.00
262;DHT22;114;48.260;10.988;2024-01-16T00:48:18;-4.90;1.00
262;DHT22;114;48.260;10.988;2024-01-16T00:50:46;-4.80;1.00
262;DHT22;114;48.260;10.988;2024-01-16T00:53:16;-4.70;1.00
262;DHT22;114;48.260;10.988;2024-01-16T00:55:42;-4.80;1.00
262;DHT22;114;48.260;10.988;2024-01-16T00:58:08;-5.20;1.00
262;DHT22;114;48.260;10.988;2024-01-16T01:00:34;-5.30;1.00
262;DHT22;114;48.260;10.988;2024-01-16T01:03:00;-4.90;1.00
262;DHT22;114;48.260;10.988;2024-01-16T01:05:26;-4.80;1.00
262;DHT22;114;48.260;10.988;2024-01-16T01:07:55;-4.80;1.00
262;DHT22;114;48.260;10.988;2024-01-16T01:10:22;-5.40;1.00
262;DHT22;114;48.260;10.988;2024-01-16T01:12:49;-5.00;1.00
262;DHT22;114;48.260;10.988;2024-01-16T01:15:14;-5.00;1.00
262;DHT22;114;48.260;10.988;2024-01-16T01:17:40;-5.00;1.00
262;DHT22;114;48.260;10.988;2024-01-16T01:20:09;-5.40;1.00
262;DHT22;114;48.260;10.988;2024-01-16T01:22:37;-5.50;1.00
262;DHT22;114;48.260;10.988;2024-01-16T01:25:03;-5.50;1.00
262;DHT22;114;48.260;10.988;2024-01-16T01:27:29;-5.10;1.00
262;DHT22;114;48.260;10.988;2024-01-16T01:29:55;-5.40;1.00
262;DHT22;114;48.260;10.988;2024-01-16T01:32:21;-5.30;1.00
262;DHT22;114;48.260;10.988;2024-01-16T01:34:47;-5.40;1.00
262;DHT22;114;48.260;10.988;2024-01-16T01:37:14;-5.50;1.00
262;DHT22;114;48.260;10.988;2024-01-16T01:39:40;-5.30;1.00
262;DHT22;114;48.260;10.988;2024-01-16T01:42:06;-4.90;1.00
262;DHT22;114;48.260;10.988;2024-01-16T01:44:33;-5.30;1.00
262;DHT22;114;48.260;10.988;2024-01-16T01:46:59;-5.50;1.00
262;DHT22;114;48.260;10.988;2024-01-16T01:49:25;-5.50;1.00
262;DHT22;114;48.260;10.988;2024-01-16T01:51:53;-5.00;1.00
262;DHT22;114;48.260;10.988;2024-01-16T01:54:19;-5.50;1.00
262;DHT22;114;48.260;10.988;2024-01-16T01:56:47;-5.30;1.00
262;DHT22;114;48.260;10.988;2024-01-16T01:59:14;-5.10;1.00
262;DHT22;114;48.260;10.988;2024-01-16T02:01:45;-5.10;1.00
262;DHT22;114;48.260;10.988;2024-01-16T02:04:14;-5.50;1.00
262;DHT22;114;48.260;10.988;2024-01-16T02:06:42;-5.20;1.00
262;DHT22;114;48.260;10.988;2024-01-16T02:09:07;-5.70;1.00
262;DHT22;114;48.260;10.988;2024-01-16T02:11:34;-5.30;1.00
262;DHT22;114;48.260;10.988;2024-01-16T02:14:00;-5.40;1.00
262;DHT22;114;48.260;10.988;2024-01-16T02:16:25;-5.90;1.00
262;DHT22;114;48.260;10.988;2024-01-16T02:18:52;-5.90;1.00
262;DHT22;114;48.260;10.988;2024-01-16T02:21:22;-5.50;1.00
262;DHT22;114;48.260;10.988;2024-01-16T02:23:48;-5.70;1.00
262;DHT22;114;48.260;10.988;2024-01-16T02:26:14;-5.40;1.00
262;DHT22;114;48.260;10.988;2024-01-16T02:28:41;-5.40;1.00
262;DHT22;114;48.260;10.988;2024-01-16T02:31:08;-5.90;1.00
262;DHT22;114;48.260;10.988;2024-01-16T02:33:33;-5.80;1.00
262;DHT22;114;48.260;10.988;2024-01-16T02:35:59;-5.70;1.00
262;DHT22;114;48.260;10.988;2024-01-16T02:38:24;-5.40;1.00
262;DHT22;114;48.260;10.988;2024-01-16T02:40:51;-5.40;1.00
262;DHT22;114;48.260;10.988;2024-01-16T02:43:16;-5.80;1.00
262;DHT22;114;48.260;10.988;2024-01-16T02:45:42;-5.50;1.00
262;DHT22;114;48.260;10.988;2024-01-16T02:48:09;-5.40;1.00
262;DHT22;114;48.260;10.988;2024-01-16T02:50:35;-5.70;1.00
262;DHT22;114;48.260;10.988;2024-01-16T02:53:00;-5.20;1.00
262;DHT22;114;48.260;10.988;2024-01-16T02:55:26;-5.10;1.00
262;DHT22;114;48.260;10.988;2024-01-16T02:57:52;-5.50;1.00
262;DHT22;114;48.260;10.988;2024-01-16T03:00:17;-5.60;1.00
262;DHT22;114;48.260;10.988;2024-01-16T03:02:44;-5.00;1.00
262;DHT22;114;48.260;10.988;2024-01-16T03:05:10;-5.20;1.00
262;DHT22;114;48.260;10.988;2024-01-16T03:07:36;-5.10;1.00
262;DHT22;114;48.260;10.988;2024-01-16T03:10:03;-5.10;1.00
262;DHT22;114;48.260;10.988;2024-01-16T03:12:28;-5.30;1.00
262;DHT22;114;48.260;10.988;2024-01-16T03:14:54;-5.70;1.00
262;DHT22;114;48.260;10.988;2024-01-16T03:17:20;-5.40;1.00
262;DHT22;114;48.260;10.988;2024-01-16T03:19:47;-5.70;1.00
262;DHT22;114;48.260;10.988;2024-01-16T03:22:14;-5.30;1.00
262;DHT22;114;48.260;10.988;2024-01-16T03:24:40;-5.20;1.00
262;DHT22;114;48.260;10.988;2024-01-16T03:27:07;-5.90;1.00
262;DHT22;114;48.260;10.988;2024-01-16T03:29:32;-5.90;1.00
262;DHT22;114;48.260;10.988;2024-01-16T03:32:00;-5.80;1.00
262;DHT22;114;48.260;10.988;2024-01-16T03:34:26;-5.30;1.00
262;DHT22;114;48.260;10.988;2024-01-16T03:36:52;-5.30;1.00
262;DHT22;114;48.260;10.988;2024-01-16T03:39:18;-5.40;1.00
262;DHT22;114;48.260;10.988;2024-01-16T03:41:44;-5.70;1.00
262;DHT22;114;48.260;10.988;2024-01-16T03:44:09;-5.70;1.00
262;DHT22;114;48.260;10.988;2024-01-16T03:46:36;-5.40;1.00
262;DHT22;114;48.260;10.988;2024-01-16T03:49:01;-5.90;1.00
262;DHT22;114;48.260;10.988;2024-01-16T03:51:27;-5.60;1.00
262;DHT22;114;48.260;10.988;2024-01-16T03:53:53;-5.80;1.00
262;DHT22;114;48.260;10.988;2024-01-16T03:56:21;-5.70;1.00
262;DHT22;114;48.260;10.988;2024-01-16T03:58:47;-5.50;1.00
262;DHT22;114;48.260;10.988;2024-01-16T04:01:14;-6.00;1.00
262;DHT22;114;48.260;10.988;2024-01-16T04:03:40;-6.00;1.00
262;DHT22;114;48.260;10.988;2024-01-16T04:06:18;-5.60;1.00
262;DHT22;114;48.260;10.988;2024-01-16T04:08:45;-5.60;1.00
262;DHT22;114;48.260;10.988;2024-01-16T04:11:14;-5.70;1.00
262;DHT22;114;48.260;10.988;2024-01-16T04:13:40;-5.70;1.00
262;DHT22;114;48.260;10.988;2024-01-16T04:16:06;-6.00;1.00
262;DHT22;114;48.260;10.988;2024-01-16T04:18:40;-6.20;1.00
262;DHT22;114;48.260;10.988;2024-01-16T04:21:06;-5.70;1.00
262;DHT22;114;48.260;10.988;2024-01-16T04:23:32;-5.80;1.00
262;DHT22;114;48.260;10.988;2024-01-16T04:25:58;-5.70;1.00
262;DHT22;114;48.260;10.988;2024-01-16T04:28:24;-5.80;1.00
262;DHT22;114;48.260;10.988;2024-01-16T04:30:50;-5.90;1.00
262;DHT22;114;48.260;10.988;2024-01-16T04:33:16;-5.80;1.00
262;DHT22;114;48.260;10.988;2024-01-16T04:35:43;-5.70;1.00
262;DHT22;114;48.260;10.988;2024-01-16T04:38:08;-6.20;1.00
262;DHT22;114;48.260;10.988;2024-01-16T04:40:34;-5.70;1.00
262;DHT22;114;48.260;10.988;2024-01-16T04:43:00;-5.70;1.00
262;DHT22;114;48.260;10.988;2024-01-16T04:45:28;-5.40;1.00
262;DHT22;114;48.260;10.988;2024-01-16T04:47:54;-5.30;1.00
262;DHT22;114;48.260;10.988;2024-01-16T04:50:20;-5.90;1.00
262;DHT22;114;48.260;10.988;2024-01-16T04:52:46;-5.70;1.00
262;DHT22;114;48.260;10.988;2024-01-16T04:55:11;-5.30;1.00
262;DHT22;114;48.260;10.988;2024-01-16T04:57:37;-5.10;1.00
262;DHT22;114;48.260;10.988;2024-01-16T05:00:04;-5.30;1.00
262;DHT22;114;48.260;10.988;2024-01-16T05:02:33;-5.30;1.00
262;DHT22;114;48.260;10.988;2024-01-16T05:04:59;-5.30;1.00
262;DHT22;114;48.260;10.988;2024-01-16T05:07:26;-5.80;1.00
262;DHT22;114;48.260;10.988;2024-01-16T05:09:52;-5.00;1.00
262;DHT22;114;48.260;10.988;2024-01-16T05:12:18;-5.10;1.00
262;DHT22;114;48.260;10.988;2024-01-16T05:14:43;-5.10;1.00
262;DHT22;114;48.260;10.988;2024-01-16T05:17:09;-5.80;1.00
262;DHT22;114;48.260;10.988;2024-01-16T05:19:35;-5.80;1.00
262;DHT22;114;48.260;10.988;2024-01-16T05:22:00;-5.40;1.00
262;DHT22;114;48.260;10.988;2024-01-16T05:24:27;-5.30;1.00
262;DHT22;114;48.260;10.988;2024-01-16T05:26:53;-5.30;1.00
262;DHT22;114;48.260;10.988;2024-01-16T05:29:18;-5.30;1.00
262;DHT22;114;48.260;10.988;2024-01-16T05:31:44;-5.50;1.00
262;DHT22;114;48.260;10.988;2024-01-16T05:34:11;-4.90;1.00
262;DHT22;114;48.260;10.988;2024-01-16T05:36:38;-5.00;1.00
262;DHT22;114;48.260;10.988;2024-01-16T05:39:03;-5.00;1.00
262;DHT22;114;48.260;10.988;2024-01-16T05:41:33;-4.60;1.00
262;DHT22;114;48.260;10.988;2024-01-16T05:44:00;-4.80;1.00
262;DHT22;114;48.260;10.988;2024-01-16T05:46:30;-4.70;1.00
262;DHT22;114;48.260;10.988;2024-01-16T05:48:56;-5.30;1.00
262;DHT22;114;48.260;10.988;2024-01-16T05:51:22;-4.90;1.00
262;DHT22;114;48.260;10.988;2024-01-16T05:53:48;-4.90;1.00
262;DHT22;114;48.260;10.988;2024-01-16T05:56:15;-5.30;1.00
262;DHT22;114;48.260;10.988;2024-01-16T05:58:41;-4.70;1.00
262;DHT22;114;48.260;10.988;2024-01-16T06:01:06;-4.90;1.00
262;DHT22;114;48.260;10.988;2024-01-16T06:03:33;-4.80;1.00
262;DHT22;114;48.260;10.988;2024-01-16T06:05:59;-4.90;1.00
262;DHT22;114;48.260;10.988;2024-01-16T06:08:25;-5.30;1.00
262;DHT22;114;48.260;10.988;2024-01-16T06:10:51;-5.40;1.00
262;DHT22;114;48.260;10.988;2024-01-16T06:13:18;-5.50;1.00
262;DHT22;114;48.260;10.988;2024-01-16T06:15:44;-5.40;1.00
262;DHT22;114;48.260;10.988;2024-01-16T06:18:10;-4.90;1.00
262;DHT22;114;48.260;10.988;2024-01-16T06:20:35;-5.60;1.00
262;DHT22;114;48.260;10.988;2024-01-16T06:23:01;-5.00;1.00
262;DHT22;114;48.260;10.988;2024-01-16T06:25:27;-5.30;1.00
262;DHT22;114;48.260;10.988;2024-01-16T06:27:52;-5.20;1.00
262;DHT22;114;48.260;10.988;2024-01-16T06:30:18;-4.50;1.00
262;DHT22;114;48.260;10.988;2024-01-16T06:32:44;-4.10;1.00
262;DHT22;114;48.260;10.988;2024-01-16T06:35:11;-4.10;1.00
262;DHT22;114;48.260;10.988;2024-01-16T06:37:37;-4.60;1.00
262;DHT22;114;48.260;10.988;2024-01-16T06:40:03;-4.90;1.00
262;DHT22;114;48.260;10.988;2024-01-16T06:42:30;-5.00;1.00
262;DHT22;114;48.260;10.988;2024-01-16T06:44:57;-5.00;1.00
262;DHT22;114;48.260;10.988;2024-01-16T06:47:24;-5.10;1.00
262;DHT22;114;48.260;10.988;2024-01-16T06:49:50;-5.60;1.00
262;DHT22;114;48.260;10.988;2024-01-16T06:52:15;-5.10;1.00
262;DHT22;114;48.260;10.988;2024-01-16T06:54:42;-5.20;1.00
262;DHT22;114;48.260;10.988;2024-01-16T06:57:08;-5.50;1.00
262;DHT22;114;48.260;10.988;2024-01-16T06:59:33;-5.50;1.00
262;DHT22;114;48.260;10.988;2024-01-16T07:01:59;-5.60;1.00
262;DHT22;114;48.260;10.988;2024-01-16T07:04:25;-5.30;1.00
262;DHT22;114;48.260;10.988;2024-01-16T07:06:51;-5.40;1.00
262;DHT22;114;48.260;10.988;2024-01-16T07:09:17;-5.70;1.00
262;DHT22;114;48.260;10.988;2024-01-16T07:11:46;-5.80;1.00
262;DHT22;114;48.260;10.988;2024-01-16T07:14:11;-6.10;1.00
262;DHT22;114;48.260;10.988;2024-01-16T07:16:37;-6.30;1.00
262;DHT22;114;48.260;10.988;2024-01-16T07:19:03;-6.20;1.00
262;DHT22;114;48.260;10.988;2024-01-16T07:21:29;-6.30;1.00
262;DHT22;114;48.260;10.988;2024-01-16T07:23:55;-6.10;1.00
262;DHT22;114;48.260;10.988;2024-01-16T07:26:22;-6.10;1.00
262;DHT22;114;48.260;10.988;2024-01-16T07:28:48;-5.90;1.00
262;DHT22;114;48.260;10.988;2024-01-16T07:31:14;-6.00;1.00
262;DHT22;114;48.260;10.988;2024-01-16T07:33:42;-6.20;1.00
262;DHT22;114;48.260;10.988;2024-01-16T07:36:09;-6.20;1.00
262;DHT22;114;48.260;10.988;2024-01-16T07:38:35;-5.80;1.00
262;DHT22;114;48.260;10.988;2024-01-16T07:41:02;-5.70;1.00
262;DHT22;114;48.260;10.988;2024-01-16T07:43:28;-5.50;1.00
262;DHT22;114;48.260;10.988;2024-01-16T07:45:55;-5.60;1.00
262;DHT22;114;48.260;10.988;2024-01-16T07:48:21;-5.40;1.00
262;DHT22;114;48.260;10.988;2024-01-16T07:50:48;-5.70;1.00
262;DHT22;114;48.260;10.988;2024-01-16T07:53:14;-5.30;1.00
262;DHT22;114;48.260;10.988;2024-01-16T07:55:41;-5.70;1.00
262;DHT22;114;48.260;10.988;2024-01-16T07:58:07;-5.30;1.00
262;DHT22;114;48.260;10.988;2024-01-16T08:00:32;-5.80;1.00
262;DHT22;114;48.260;10.988;2024-01-16T08:02:58;-5.80;1.00
262;DHT22;114;48.260;10.988;2024-01-16T08:05:23;-5.50;1.00
262;DHT22;114;48.260;10.988;2024-01-16T08:07:54;-4.70;1.00
262;DHT22;114;48.260;10.988;2024-01-16T08:10:20;-4.80;1.00
262;DHT22;114;48.260;10.988;2024-01-16T08:12:45;-4.40;1.00
262;DHT22;114;48.260;10.988;2024-01-16T08:15:11;-4.50;1.00
262;DHT22;114;48.260;10.988;2024-01-16T08:17:37;-4.30;1.00
262;DHT22;114;48.260;10.988;2024-01-16T08:20:04;-4.60;1.00
262;DHT22;114;48.260;10.988;2024-01-16T08:22:29;-3.90;1.00
262;DHT22;114;48.260;10.988;2024-01-16T08:24:55;-4.20;1.00
262;DHT22;114;48.260;10.988;2024-01-16T08:27:21;-4.00;1.00
262;DHT22;114;48.260;10.988;2024-01-16T08:29:46;-4.00;1.00
262;DHT22;114;48.260;10.988;2024-01-16T08:32:16;-3.90;1.00
262;DHT22;114;48.260;10.988;2024-01-16T08:34:42;-4.00;1.00
262;DHT22;114;48.260;10.988;2024-01-16T08:37:08;-4.00;1.00
262;DHT22;114;48.260;10.988;2024-01-16T08:39:34;-3.80;1.00
262;DHT22;114;48.260;10.988;2024-01-16T08:42:01;-4.00;1.00
262;DHT22;114;48.260;10.988;2024-01-16T08:44:28;-3.80;1.00
262;DHT22;114;48.260;10.988;2024-01-16T08:46:54;-3.10;1.00
262;DHT22;114;48.260;10.988;2024-01-16T08:49:21;-3.00;1.00
262;DHT22;114;48.260;10.988;2024-01-16T08:51:46;-2.80;1.00
262;DHT22;114;48.260;10.988;2024-01-16T08:54:12;-2.80;1.00
262;DHT22;114;48.260;10.988;2024-01-16T08:56:38;-2.60;1.00
262;DHT22;114;48.260;10.988;2024-01-16T08:59:04;-2.80;1.00
262;DHT22;114;48.260;10.988;2024-01-16T09:01:30;-2.20;1.00
262;DHT22;114;48.260;10.988;2024-01-16T09:03:56;-2.10;1.00
262;DHT22;114;48.260;10.988;2024-01-16T09:06:23;-2.10;1.00
262;DHT22;114;48.260;10.988;2024-01-16T09:08:48;-1.80;1.00
262;DHT22;114;48.260;10.988;2024-01-16T09:11:14;-1.70;1.00
262;DHT22;114;48.260;10.988;2024-01-16T09:13:40;-1.90;1.00
262;DHT22;114;48.260;10.988;2024-01-16T09:16:05;-1.30;1.00
262;DHT22;114;48.260;10.988;2024-01-16T09:18:32;-1.20;1.00
262;DHT22;114;48.260;10.988;2024-01-16T09:20:59;-1.00;1.00
262;DHT22;114;48.260;10.988;2024-01-16T09:23:24;-1.20;1.00
262;DHT22;114;48.260;10.988;2024-01-16T09:25:52;-0.70;1.00
262;DHT22;114;48.260;10.988;2024-01-16T09:28:17;-0.60;1.00
262;DHT22;114;48.260;10.988;2024-01-16T09:30:44;-0.60;1.00
262;DHT22;114;48.260;10.988;2024-01-16T09:33:10;-0.40;1.00
262;DHT22;114;48.260;10.988;2024-01-16T09:35:37;-0.90;1.00
262;DHT22;114;48.260;10.988;2024-01-16T09:38:03;-0.80;1.00
262;DHT22;114;48.260;10.988;2024-01-16T09:40:30;-0.50;1.00
262;DHT22;114;48.260;10.988;2024-01-16T09:42:57;-0.60;1.00
262;DHT22;114;48.260;10.988;2024-01-16T09:45:22;-0.70;1.00
262;DHT22;114;48.260;10.988;2024-01-16T09:47:51;-1.10;1.00
262;DHT22;114;48.260;10.988;2024-01-16T09:50:18;-0.80;1.00
262;DHT22;114;48.260;10.988;2024-01-16T09:52:45;-0.60;1.00
262;DHT22;114;48.260;10.988;2024-01-16T09:55:13;-0.80;1.00
262;DHT22;114;48.260;10.988;2024-01-16T09:57:39;-0.20;1.00
262;DHT22;114;48.260;10.988;2024-01-16T10:00:11;-0.60;1.00
262;DHT22;114;48.260;10.988;2024-01-16T10:02:41;-0.30;1.00
262;DHT22;114;48.260;10.988;2024-01-16T10:05:11;-0.40;1.00
262;DHT22;114;48.260;10.988;2024-01-16T10:07:41;-0.20;1.00
262;DHT22;114;48.260;10.988;2024-01-16T10:10:09;-0.20;1.00
262;DHT22;114;48.260;10.988;2024-01-16T10:12:37;-0.10;1.00
262;DHT22;114;48.260;10.988;2024-01-16T10:15:06;-0.30;1.00
262;DHT22;114;48.260;10.988;2024-01-16T10:17:38;-0.40;1.00
262;DHT22;114;48.260;10.988;2024-01-16T10:20:04;-0.70;1.00
262;DHT22;114;48.260;10.988;2024-01-16T10:22:30;-0.50;1.00
262;DHT22;114;48.260;10.988;2024-01-16T10:25:06;-0.60;1.00
262;DHT22;114;48.260;10.988;2024-01-16T10:27:35;-0.30;1.00
262;DHT22;114;48.260;10.988;2024-01-16T10:30:01;0.10;1.00
262;DHT22;114;48.260;10.988;2024-01-16T10:32:34;0.50;1.00
262;DHT22;114;48.260;10.988;2024-01-16T10:35:10;0.40;1.00
262;DHT22;114;48.260;10.988;2024-01-16T10:37:55;0.70;1.00
262;DHT22;114;48.260;10.988;2024-01-16T10:40:22;0.60;1.00
262;DHT22;114;48.260;10.988;2024-01-16T10:43:03;0.70;1.00
262;DHT22;114;48.260;10.988;2024-01-16T10:45:30;0.50;1.00
262;DHT22;114;48.260;10.988;2024-01-16T10:48:06;0.40;1.00
262;DHT22;114;48.260;10.988;2024-01-16T10:50:34;0.50;1.00
262;DHT22;114;48.260;10.988;2024-01-16T10:53:03;0.40;1.00
262;DHT22;114;48.260;10.988;2024-01-16T10:55:29;0.30;1.00
262;DHT22;114;48.260;10.988;2024-01-16T10:57:58;-0.10;1.00
262;DHT22;114;48.260;10.988;2024-01-16T11:00:28;0.30;1.00
262;DHT22;114;48.260;10.988;2024-01-16T11:03:04;0.40;1.00
262;DHT22;114;48.260;10.988;2024-01-16T11:05:32;0.60;1.00
262;DHT22;114;48.260;10.988;2024-01-16T11:08:01;1.10;1.00
262;DHT22;114;48.260;10.988;2024-01-16T11:10:28;1.20;1.00
262;DHT22;114;48.260;10.988;2024-01-16T11:12:54;1.20;1.00
262;DHT22;114;48.260;10.988;2024-01-16T11:15:21;1.20;1.00
262;DHT22;114;48.260;10.988;2024-01-16T11:17:47;0.90;1.00
262;DHT22;114;48.260;10.988;2024-01-16T11:20:15;1.20;1.00
262;DHT22;114;48.260;10.988;2024-01-16T11:22:44;1.50;1.00
262;DHT22;114;48.260;10.988;2024-01-16T11:25:16;1.40;1.00
262;DHT22;114;48.260;10.988;2024-01-16T11:27:43;1.60;1.00
262;DHT22;114;48.260;10.988;2024-01-16T11:30:10;2.00;1.00
262;DHT22;114;48.260;10.988;2024-01-16T11:32:38;1.80;1.00
262;DHT22;114;48.260;10.988;2024-01-16T11:35:06;1.20;1.00
262;DHT22;114;48.260;10.988;2024-01-16T11:37:33;1.10;1.00
262;DHT22;114;48.260;10.988;2024-01-16T11:40:22;0.90;1.00
262;DHT22;114;48.260;10.988;2024-01-16T11:42:49;0.70;1.00
262;DHT22;114;48.260;10.988;2024-01-16T11:50:38;0.80;1.00
262;DHT22;114;48.260;10.988;2024-01-16T11:53:04;1.10;1.00
262;DHT22;114;48.260;10.988;2024-01-16T11:58:25;1.80;1.00
262;DHT22;114;48.260;10.988;2024-01-16T12:00:52;2.00;1.00
262;DHT22;114;48.260;10.988;2024-01-16T12:03:20;2.20;1.00
262;DHT22;114;48.260;10.988;2024-01-16T12:05:59;1.80;1.00
262;DHT22;114;48.260;10.988;2024-01-16T12:08:25;2.00;1.00
262;DHT22;114;48.260;10.988;2024-01-16T12:10:51;1.90;1.00
262;DHT22;114;48.260;10.988;2024-01-16T12:13:17;2.00;1.00
262;DHT22;114;48.260;10.988;2024-01-16T12:15:43;2.00;1.00
262;DHT22;114;48.260;10.988;2024-01-16T12:18:09;1.80;1.00
262;DHT22;114;48.260;10.988;2024-01-16T12:20:38;1.60;1.00
262;DHT22;114;48.260;10.988;2024-01-16T12:23:07;1.80;1.00
262;DHT22;114;48.260;10.988;2024-01-16T12:25:37;1.90;1.00
262;DHT22;114;48.260;10.988;2024-01-16T12:28:07;2.10;1.00
262;DHT22;114;48.260;10.988;2024-01-16T12:30:34;1.70;1.00
262;DHT22;114;48.260;10.988;2024-01-16T12:33:10;1.80;1.00
262;DHT22;114;48.260;10.988;2024-01-16T12:35:39;1.90;1.00
262;DHT22;114;48.260;10.988;2024-01-16T12:38:07;2.10;1.00
262;DHT22;114;48.260;10.988;2024-01-16T12:40:37;2.20;1.00
262;DHT22;114;48.260;10.988;2024-01-16T12:43:03;2.10;1.00
262;DHT22;114;48.260;10.988;2024-01-16T12:45:30;2.10;1.00
262;DHT22;114;48.260;10.988;2024-01-16T12:47:59;2.10;1.00
262;DHT22;114;48.260;10.988;2024-01-16T12:50:27;1.70;1.00
262;DHT22;114;48.260;10.988;2024-01-16T12:53:03;1.80;1.00
262;DHT22;114;48.260;10.988;2024-01-16T12:55:32;1.70;1.00
262;DHT22;114;48.260;10.988;2024-01-16T12:58:20;1.70;1.00
262;DHT22;114;48.260;10.988;2024-01-16T13:00:48;1.90;1.00
262;DHT22;114;48.260;10.988;2024-01-16T13:03:16;1.80;1.00
262;DHT22;114;48.260;10.988;2024-01-16T13:05:42;1.60;1.00
262;DHT22;114;48.260;10.988;2024-01-16T13:08:08;1.30;1.00
262;DHT22;114;48.260;10.988;2024-01-16T13:10:34;1.20;1.00
262;DHT22;114;48.260;10.988;2024-01-16T13:13:14;1.40;1.00
262;DHT22;114;48.260;10.988;2024-01-16T13:15:42;1.40;1.00
262;DHT22;114;48.260;10.988;2024-01-16T13:18:22;1.40;1.00
262;DHT22;114;48.260;10.988;2024-01-16T13:20:50;1.70;1.00
262;DHT22;114;48.260;10.988;2024-01-16T13:23:16;1.80;1.00
262;DHT22;114;48.260;10.988;2024-01-16T13:25:46;1.90;1.00
262;DHT22;114;48.260;10.988;2024-01-16T13:28:13;2.10;1.00
262;DHT22;114;48.260;10.988;2024-01-16T13:30:40;1.90;1.00
262;DHT22;114;48.260;10.988;2024-01-16T13:33:06;1.80;1.00
262;DHT22;114;48.260;10.988;2024-01-16T13:35:33;1.50;1.00
262;DHT22;114;48.260;10.988;2024-01-16T13:38:00;0.90;1.00
262;DHT22;114;48.260;10.988;2024-01-16T13:40:26;1.20;1.00
262;DHT22;114;48.260;10.988;2024-01-16T13:42:51;1.10;1.00
262;DHT22;114;48.260;10.988;2024-01-16T13:45:18;1.30;1.00
262;DHT22;114;48.260;10.988;2024-01-16T13:47:44;1.20;1.00
262;DHT22;114;48.260;10.988;2024-01-16T13:50:09;1.30;1.00
262;DHT22;114;48.260;10.988;2024-01-16T13:52:38;1.10;1.00
262;DHT22;114;48.260;10.988;2024-01-16T13:55:08;1.20;1.00
262;DHT22;114;48.260;10.988;2024-01-16T13:57:34;1.20;1.00
262;DHT22;114;48.260;10.988;2024-01-16T14:00:04;1.00;1.00
262;DHT22;114;48.260;10.988;2024-01-16T14:02:30;1.20;1.00
262;DHT22;114;48.260;10.988;2024-01-16T14:04:56;1.20;1.00
262;DHT22;114;48.260;10.988;2024-01-16T14:07:21;1.30;1.00
262;DHT22;114;48.260;10.988;2024-01-16T14:09:47;1.30;1.00
262;DHT22;114;48.260;10.988;2024-01-16T14:12:14;1.30;1.00
262;DHT22;114;48.260;10.988;2024-01-16T14:14:41;1.40;1.00
262;DHT22;114;48.260;10.988;2024-01-16T14:17:07;1.30;1.00
262;DHT22;114;48.260;10.988;2024-01-16T14:19:36;1.20;1.00
262;DHT22;114;48.260;10.988;2024-01-16T14:22:02;1.10;1.00
262;DHT22;114;48.260;10.988;2024-01-16T14:24:27;1.00;1.00
262;DHT22;114;48.260;10.988;2024-01-16T14:26:54;0.80;1.00
262;DHT22;114;48.260;10.988;2024-01-16T14:29:23;0.80;1.00
262;DHT22;114;48.260;10.988;2024-01-16T14:31:49;0.80;1.00
262;DHT22;114;48.260;10.988;2024-01-16T14:34:15;0.60;1.00
262;DHT22;114;48.260;10.988;2024-01-16T14:36:41;0.60;1.00
262;DHT22;114;48.260;10.988;2024-01-16T14:39:07;0.60;1.00
262;DHT22;114;48.260;10.988;2024-01-16T14:41:40;0.70;1.00
262;DHT22;114;48.260;10.988;2024-01-16T14:44:09;0.50;1.00
262;DHT22;114;48.260;10.988;2024-01-16T14:46:35;0.40;1.00
262;DHT22;114;48.260;10.988;2024-01-16T14:49:01;0.40;1.00
262;DHT22;114;48.260;10.988;2024-01-16T14:51:28;0.30;1.00
262;DHT22;114;48.260;10.988;2024-01-16T14:53:53;0.00;1.00
262;DHT22;114;48.260;10.988;2024-01-16T14:56:20;0.40;1.00
262;DHT22;114;48.260;10.988;2024-01-16T14:58:46;0.40;1.00
262;DHT22;114;48.260;10.988;2024-01-16T15:01:11;0.40;1.00
262;DHT22;114;48.260;10.988;2024-01-16T15:03:37;0.30;1.00
262;DHT22;114;48.260;10.988;2024-01-16T15:06:04;0.40;1.00
262;DHT22;114;48.260;10.988;2024-01-16T15:08:30;0.40;1.00
262;DHT22;114;48.260;10.988;2024-01-16T15:10:58;0.30;1.00
262;DHT22;114;48.260;10.988;2024-01-16T15:13:27;0.40;1.00
262;DHT22;114;48.260;10.988;2024-01-16T15:15:53;0.40;1.00
262;DHT22;114;48.260;10.988;2024-01-16T15:18:21;0.20;1.00
262;DHT22;114;48.260;10.988;2024-01-16T15:20:47;0.20;1.00
262;DHT22;114;48.260;10.988;2024-01-16T15:23:13;0.30;1.00
262;DHT22;114;48.260;10.988;2024-01-16T15:25:39;0.50;1.00
262;DHT22;114;48.260;10.988;2024-01-16T15:28:05;0.20;1.00
262;DHT22;114;48.260;10.988;2024-01-16T15:30:31;-0.30;1.00
262;DHT22;114;48.260;10.988;2024-01-16T15:33:01;0.30;1.00
262;DHT22;114;48.260;10.988;2024-01-16T15:35:29;-0.30;1.00
262;DHT22;114;48.260;10.988;2024-01-16T15:37:55;-0.10;1.00
262;DHT22;114;48.260;10.988;2024-01-16T15:40:21;-0.30;1.00
262;DHT22;114;48.260;10.988;2024-01-16T15:42:46;-0.40;1.00
262;DHT22;114;48.260;10.988;2024-01-16T15:45:12;-0.40;1.00
262;DHT22;114;48.260;10.988;2024-01-16T15:47:38;-0.90;1.00
262;DHT22;114;48.260;10.988;2024-01-16T15:50:05;-0.80;1.00
262;DHT22;114;48.260;10.988;2024-01-16T15:52:31;-0.80;1.00
262;DHT22;114;48.260;10.988;2024-01-16T15:54:57;-0.90;1.00
262;DHT22;114;48.260;10.988;2024-01-16T15:57:23;-1.20;1.00
262;DHT22;114;48.260;10.988;2024-01-16T15:59:49;-1.30;1.00
262;DHT22;114;48.260;10.988;2024-01-16T16:02:15;-1.90;1.00
262;DHT22;114;48.260;10.988;2024-01-16T16:04:41;-1.60;1.00
262;DHT22;114;48.260;10.988;2024-01-16T16:07:07;-1.70;1.00
262;DHT22;114;48.260;10.988;2024-01-16T16:09:34;-2.10;1.00
262;DHT22;114;48.260;10.988;2024-01-16T16:12:03;-1.90;1.00
262;DHT22;114;48.260;10.988;2024-01-16T16:14:29;-2.40;1.00
262;DHT22;114;48.260;10.988;2024-01-16T16:16:58;-2.10;1.00
262;DHT22;114;48.260;10.988;2024-01-16T16:19:30;-2.60;1.00
262;DHT22;114;48.260;10.988;2024-01-16T16:21:56;-2.30;1.00
262;DHT22;114;48.260;10.988;2024-01-16T16:24:23;-2.40;1.00
262;DHT22;114;48.260;10.988;2024-01-16T16:26:49;-2.50;1.00
262;DHT22;114;48.260;10.988;2024-01-16T16:29:18;-2.50;1.00
262;DHT22;114;48.260;10.988;2024-01-16T16:31:44;-2.60;1.00
262;DHT22;114;48.260;10.988;2024-01-16T16:34:11;-2.60;1.00
262;DHT22;114;48.260;10.988;2024-01-16T16:36:40;-3.20;1.00
262;DHT22;114;48.260;10.988;2024-01-16T16:39:06;-3.30;1.00
262;DHT22;114;48.260;10.988;2024-01-16T16:41:33;-2.80;1.00
262;DHT22;114;48.260;10.988;2024-01-16T16:43:59;-2.90;1.00
262;DHT22;114;48.260;10.988;2024-01-16T16:46:25;-3.10;1.00